Terminal Aerodrome Forecast
Issued by NWS Shreveport, LA

Home | Current Version | Previous Version | Text Only | Print | Product List | Glossary On
Versions: 1 2 3 4 5 6 7 8 9 10 11 12 13 14 15
000
FTUS44 KSHV 190500
TAFGGG
TAF
KGGG 190522Z 1906/2006 12003KT P6SM BKN250
      TEMPO 1910/1913 5SM BR
     FM191600 14005KT P6SM SCT035 BKN250
     FM200100 13004KT P6SM BKN250=

USA.gov is the U.S. government's official web portal to all federal, state and local government web resources and services.